SBTT/TBT METAR and TAF weather

Enter ICAO airport designator
Station Type Date Time Source
SBTT METAR 2022/12/03 23:00 UTC NOAA

SBTT 032300Z VRB02KT 9999 FEW030 26/23 Q1008


Station Type Date Time Source
SBTT Decoded METAR 2022/12/03 23:00 UTC NOAA

Tabatinga, Brazil (SBTT) 03-40S 069-40W
Dec 03, 2022 - 06:00 PM EST / 2022.12.03 2300 UTC
Wind: Variable at 2 MPH (2 KT):0
Visibility: greater than 7 mile(s):0
Sky conditions: mostly clear
Temperature: 78 F (26 C)
Dew Point: 73 F (23 C)
Relative Humidity: 83%
Pressure (altimeter): 29.77 in. Hg (1008 hPa)
ob: SBTT 032300Z VRB02KT 9999 FEW030 26/23 Q1008
cycle: 23

Station Type Date Time Source
SBTT TAF 2022/12/04 06:06 UTC NOAA

TAF SBTT 040103Z 0406/0506 24003KT 9999 FEW030 TN24/0410Z TX29/0419Z
BECMG 0411/0413 08005KT BKN035
BECMG 0416/0418 32010KT BKN025 FEW030TCU
TEMPO 0419/0422 7000 TSRA BKN017 FEW025CB
BECMG 0422/0424 04002KT SCT035
RMK PFV

Example: see airport list